createdAt,value
2018-04-07T00:01:32.445Z,10.07
2018-04-07T00:03:59.734Z,10.00
2018-04-07T00:06:27.063Z,10.57
2018-04-07T00:08:54.351Z,10.00
2018-04-07T00:11:21.659Z,9.77
2018-04-07T00:13:48.950Z,11.57
2018-04-07T00:16:16.227Z,10.07
2018-04-07T00:18:43.546Z,8.90
2018-04-07T00:21:10.824Z,11.33
2018-04-07T00:23:38.116Z,10.20
2018-04-07T00:26:05.403Z,10.90
2018-04-07T00:28:32.696Z,10.03
2018-04-07T00:30:59.980Z,13.43
2018-04-07T00:33:27.325Z,10.97
2018-04-07T00:35:54.609Z,9.27
2018-04-07T00:38:21.899Z,9.67
2018-04-07T00:40:49.199Z,10.13
2018-04-07T00:43:16.494Z,10.47
2018-04-07T00:45:43.803Z,10.53
2018-04-07T00:48:11.079Z,11.30
2018-04-07T00:50:38.376Z,10.93
2018-04-07T00:53:05.673Z,10.27
2018-04-07T00:55:39.588Z,10.07
2018-04-07T00:58:06.880Z,11.13
2018-04-07T01:00:34.186Z,11.10
2018-04-07T01:03:01.470Z,10.40
2018-04-07T01:05:28.769Z,9.67
2018-04-07T01:07:56.053Z,10.97
2018-04-07T01:10:23.348Z,11.20
2018-04-07T01:12:50.622Z,9.10
2018-04-07T01:15:17.934Z,11.80
2018-04-07T01:17:45.234Z,8.73
2018-04-07T01:20:12.520Z,10.20
2018-04-07T01:22:39.821Z,9.40
2018-04-07T01:25:07.442Z,9.40
2018-04-07T01:27:34.799Z,11.43
2018-04-07T01:30:02.086Z,10.30
2018-04-07T01:32:30.454Z,10.80
2018-04-07T01:34:57.905Z,11.67
2018-04-07T01:37:25.285Z,12.03
2018-04-07T01:39:52.587Z,12.57
2018-04-07T01:42:19.863Z,10.57
2018-04-07T01:44:47.171Z,11.27
2018-04-07T01:47:14.477Z,12.13
2018-04-07T01:49:41.774Z,12.80
2018-04-07T01:52:09.091Z,12.53
2018-04-07T01:54:36.404Z,12.17
2018-04-07T01:57:03.678Z,11.80
2018-04-07T01:59:30.980Z,10.57
2018-04-07T02:01:58.301Z,11.80
2018-04-07T02:04:25.603Z,12.70
2018-04-07T02:06:52.896Z,11.63
2018-04-07T02:09:20.163Z,10.60
2018-04-07T02:11:47.467Z,12.57
2018-04-07T02:14:14.753Z,10.43
2018-04-07T02:16:42.054Z,14.90
2018-04-07T02:19:09.339Z,12.27
2018-04-07T02:21:36.637Z,12.87
2018-04-07T02:24:03.928Z,11.07
2018-04-07T02:26:31.219Z,11.67
2018-04-07T02:28:58.740Z,12.33
2018-04-07T02:31:26.069Z,10.23
2018-04-07T02:33:54.471Z,11.23
2018-04-07T02:36:21.772Z,12.97
2018-04-07T02:38:49.318Z,13.13
2018-04-07T02:41:16.591Z,11.93
2018-04-07T02:43:43.906Z,12.80
2018-04-07T02:46:11.204Z,17.70
2018-04-07T02:48:38.503Z,11.77
2018-04-07T02:51:05.792Z,14.27
2018-04-07T02:53:33.093Z,14.50
2018-04-07T02:56:00.370Z,15.83
2018-04-07T02:58:27.668Z,13.07
2018-04-07T03:00:54.951Z,12.70
2018-04-07T03:03:22.264Z,13.20
2018-04-07T03:05:49.564Z,13.10
2018-04-07T03:08:16.891Z,13.13
2018-04-07T03:10:44.198Z,11.70
2018-04-07T03:13:11.474Z,12.50
2018-04-07T03:15:39.705Z,11.93
2018-04-07T03:18:06.981Z,13.33
2018-04-07T03:20:34.272Z,12.70
2018-04-07T03:23:02.224Z,11.90
2018-04-07T03:25:29.534Z,13.40
2018-04-07T03:27:56.819Z,12.37
2018-04-07T03:30:25.095Z,13.60
2018-04-07T03:32:52.379Z,13.17
2018-04-07T03:35:19.680Z,11.40
2018-04-07T03:37:46.974Z,11.97
2018-04-07T03:40:14.274Z,12.37
2018-04-07T03:42:41.573Z,11.87
2018-04-07T03:45:08.837Z,14.53
2018-04-07T03:47:36.151Z,11.17
2018-04-07T03:50:03.444Z,11.70
2018-04-07T03:52:30.754Z,14.67
2018-04-07T03:54:58.056Z,12.53
2018-04-07T03:57:25.347Z,12.10
2018-04-07T03:59:52.635Z,13.20
2018-04-07T04:02:19.928Z,12.80
2018-04-07T04:04:47.210Z,12.67
2018-04-07T04:07:14.538Z,12.17
2018-04-07T04:09:41.832Z,13.20
2018-04-07T04:12:09.117Z,12.40
2018-04-07T04:14:36.407Z,11.23
2018-04-07T04:17:03.708Z,11.27
2018-04-07T04:19:30.998Z,12.00
2018-04-07T04:21:58.295Z,12.50
2018-04-07T04:24:25.986Z,14.40
2018-04-07T04:26:53.259Z,12.00
2018-04-07T04:29:20.553Z,13.57
2018-04-07T04:31:47.831Z,11.77
2018-04-07T04:34:15.140Z,13.00
2018-04-07T04:36:42.436Z,13.70
2018-04-07T04:39:09.734Z,12.63
2018-04-07T04:41:42.240Z,12.70
2018-04-07T04:44:09.533Z,12.80
2018-04-07T04:46:36.824Z,14.33
2018-04-07T04:49:04.120Z,13.30
2018-04-07T04:51:31.397Z,13.20
2018-04-07T04:53:58.704Z,13.27
2018-04-07T04:56:26.048Z,12.57
2018-04-07T04:58:53.336Z,12.80
2018-04-07T05:01:20.634Z,13.97
2018-04-07T05:03:47.931Z,12.77
2018-04-07T05:06:15.275Z,13.63
2018-04-07T05:08:42.573Z,13.33
2018-04-07T05:11:10.385Z,11.53
2018-04-07T05:13:37.675Z,13.33
2018-04-07T05:16:04.967Z,11.27
2018-04-07T05:18:32.243Z,13.27
2018-04-07T05:20:59.535Z,11.47
2018-04-07T05:23:26.851Z,12.03
2018-04-07T05:25:54.139Z,12.03
2018-04-07T05:28:21.453Z,13.80
2018-04-07T05:30:48.884Z,12.50
2018-04-07T05:33:16.246Z,12.73
2018-04-07T05:35:43.554Z,11.70
2018-04-07T05:38:10.866Z,11.67
2018-04-07T05:40:38.136Z,12.07
2018-04-07T05:43:05.435Z,13.37
2018-04-07T05:45:32.723Z,12.10
2018-04-07T05:48:00.042Z,11.37
2018-04-07T05:50:27.353Z,10.47
2018-04-07T05:52:54.652Z,11.53
2018-04-07T05:55:21.946Z,11.77
2018-04-07T05:57:49.265Z,11.60
2018-04-07T06:00:16.573Z,13.80
2018-04-07T06:02:43.910Z,11.10
2018-04-07T06:05:11.228Z,13.03
2018-04-07T06:07:38.573Z,12.53
2018-04-07T06:10:05.852Z,12.77
2018-04-07T06:12:33.137Z,13.10
2018-04-07T06:15:00.439Z,12.47
2018-04-07T06:17:27.758Z,12.87
2018-04-07T06:19:55.463Z,13.77
2018-04-07T06:22:22.748Z,12.33
2018-04-07T06:24:50.053Z,11.93
2018-04-07T06:27:17.331Z,13.37
2018-04-07T06:29:44.615Z,12.73
2018-04-07T06:32:11.947Z,9.70
2018-04-07T06:34:39.242Z,10.83
2018-04-07T06:37:06.550Z,12.20
2018-04-07T06:39:33.844Z,13.83
2018-04-07T06:42:01.197Z,16.37
2018-04-07T06:44:28.513Z,13.60
2018-04-07T06:46:55.805Z,13.93
2018-04-07T06:49:23.120Z,10.87
2018-04-07T06:51:50.404Z,11.07
2018-04-07T06:54:17.703Z,11.80
2018-04-07T06:56:44.998Z,11.00
2018-04-07T06:59:12.291Z,11.17
2018-04-07T07:01:39.577Z,9.50
2018-04-07T07:04:06.871Z,11.63
2018-04-07T07:06:34.191Z,11.30
2018-04-07T07:09:01.539Z,12.50
2018-04-07T07:11:28.827Z,15.47
2018-04-07T07:13:56.176Z,14.40
2018-04-07T07:16:23.475Z,14.27
2018-04-07T07:18:50.827Z,14.90
2018-04-07T07:21:24.174Z,10.70
2018-04-07T07:23:51.518Z,11.43
2018-04-07T07:26:18.819Z,11.53
2018-04-07T07:28:46.135Z,10.23
2018-04-07T07:31:13.407Z,11.63
2018-04-07T07:33:40.715Z,11.57
2018-04-07T07:36:08.063Z,9.67
2018-04-07T07:38:35.446Z,10.63
2018-04-07T07:41:02.804Z,10.40
2018-04-07T07:43:30.210Z,10.00
2018-04-07T07:45:57.616Z,10.50
2018-04-07T07:48:24.904Z,10.27
2018-04-07T07:50:52.225Z,10.10
2018-04-07T07:53:19.804Z,9.40
2018-04-07T07:55:47.107Z,9.73
2018-04-07T07:58:15.329Z,10.50
2018-04-07T08:00:42.616Z,11.60
2018-04-07T08:03:09.985Z,10.47
2018-04-07T08:05:37.329Z,10.90
2018-04-07T08:08:04.627Z,10.10
2018-04-07T08:10:31.960Z,11.60
2018-04-07T08:12:59.383Z,10.07
2018-04-07T08:15:26.806Z,9.97
2018-04-07T08:17:54.113Z,10.57
2018-04-07T08:20:21.956Z,11.20
2018-04-07T08:22:49.243Z,9.17
2018-04-07T08:25:16.628Z,11.10
2018-04-07T08:27:43.894Z,12.70
2018-04-07T08:30:11.242Z,11.70
2018-04-07T08:32:38.543Z,9.60
2018-04-07T08:35:05.851Z,10.10
2018-04-07T08:37:33.310Z,10.50
2018-04-07T08:40:00.936Z,10.93
2018-04-07T08:42:28.253Z,9.97
2018-04-07T08:44:55.614Z,11.30
2018-04-07T08:47:22.896Z,12.63
2018-04-07T08:49:50.307Z,10.77
2018-04-07T08:52:17.628Z,10.43
2018-04-07T08:54:45.205Z,9.87
2018-04-07T08:57:12.541Z,9.50
2018-04-07T08:59:39.833Z,9.70
2018-04-07T09:02:07.222Z,9.90
2018-04-07T09:04:34.572Z,9.60
2018-04-07T09:07:01.940Z,10.53
2018-04-07T09:09:29.256Z,9.83
2018-04-07T09:11:56.787Z,10.97
2018-04-07T09:14:24.115Z,10.37
2018-04-07T09:16:51.432Z,9.57
2018-04-07T09:19:18.763Z,8.33
2018-04-07T09:21:46.080Z,9.73
2018-04-07T09:24:13.475Z,9.80
2018-04-07T09:26:40.760Z,9.23
2018-04-07T09:29:08.068Z,11.90
2018-04-07T09:31:35.331Z,9.97
2018-04-07T09:34:02.655Z,10.10
2018-04-07T09:36:30.045Z,9.37
2018-04-07T09:38:57.362Z,10.17
2018-04-07T09:41:24.758Z,10.63
2018-04-07T09:43:52.076Z,10.83
2018-04-07T09:46:19.363Z,8.37
2018-04-07T09:48:46.673Z,8.23
2018-04-07T09:51:14.018Z,8.93
2018-04-07T09:53:41.316Z,8.53
2018-04-07T09:56:08.633Z,9.27
2018-04-07T09:58:35.952Z,8.60
2018-04-07T10:01:03.271Z,10.13
2018-04-07T10:03:30.562Z,9.57
2018-04-07T10:05:58.029Z,8.07
2018-04-07T10:08:25.380Z,8.93
2018-04-07T10:10:52.736Z,7.43
2018-04-07T10:13:20.040Z,7.20
2018-04-07T10:15:47.450Z,8.03
2018-04-07T10:18:14.844Z,8.67
2018-04-07T10:20:42.156Z,7.73
2018-04-07T10:23:09.459Z,7.07
2018-04-07T10:25:36.746Z,8.00
2018-04-07T10:28:04.075Z,8.20
2018-04-07T10:30:31.383Z,6.77
2018-04-07T10:32:58.787Z,8.53
2018-04-07T10:35:27.089Z,6.63
2018-04-07T10:37:54.412Z,7.00
2018-04-07T10:40:22.441Z,6.80
2018-04-07T10:42:49.805Z,6.80
2018-04-07T10:45:17.142Z,6.13
2018-04-07T10:47:44.428Z,6.47
2018-04-07T10:50:11.735Z,7.10
2018-04-07T10:52:39.043Z,7.80
2018-04-07T10:55:06.539Z,6.43
2018-04-07T10:57:33.815Z,6.40
2018-04-07T11:00:01.201Z,7.50
2018-04-07T11:02:28.487Z,6.03
2018-04-07T11:04:55.880Z,8.30
2018-04-07T11:07:23.166Z,6.73
2018-04-07T11:09:50.489Z,6.93
2018-04-07T11:12:18.763Z,8.03
2018-04-07T11:14:46.308Z,7.30
2018-04-07T11:17:13.629Z,6.90
2018-04-07T11:19:40.913Z,6.50
2018-04-07T11:22:08.220Z,6.80
2018-04-07T11:24:35.699Z,5.80
2018-04-07T11:27:03.051Z,6.17
2018-04-07T11:29:30.348Z,6.63
2018-04-07T11:31:57.731Z,7.40
2018-04-07T11:34:25.071Z,6.40
2018-04-07T11:36:52.375Z,8.80
2018-04-07T11:39:19.701Z,7.50
2018-04-07T11:41:46.979Z,7.00
2018-04-07T11:44:14.297Z,7.10
2018-04-07T11:46:41.550Z,6.07
2018-04-07T11:49:08.872Z,6.77
2018-04-07T11:51:36.149Z,7.20
2018-04-07T11:54:03.442Z,7.30
2018-04-07T11:56:30.734Z,8.50
2018-04-07T11:58:59.018Z,6.97
2018-04-07T12:01:26.336Z,7.23
2018-04-07T12:03:53.656Z,7.10
2018-04-07T12:06:20.987Z,8.10
2018-04-07T12:08:48.289Z,7.10
2018-04-07T12:11:15.671Z,6.50
2018-04-07T12:13:42.990Z,8.17
2018-04-07T12:16:10.308Z,7.37
2018-04-07T12:18:37.608Z,7.10
2018-04-07T12:21:04.912Z,8.20
2018-04-07T12:23:32.359Z,7.63
2018-04-07T12:25:59.770Z,7.97
2018-04-07T12:28:27.092Z,7.97
2018-04-07T12:30:54.397Z,7.00
2018-04-07T12:33:21.758Z,7.37
2018-04-07T12:35:49.055Z,7.03
2018-04-07T12:38:16.434Z,8.00
2018-04-07T12:40:43.796Z,7.10
2018-04-07T12:43:11.067Z,8.33
2018-04-07T12:45:38.373Z,8.20
2018-04-07T12:48:05.698Z,7.10
2018-04-07T12:50:32.976Z,6.90
2018-04-07T12:53:00.260Z,7.90
2018-04-07T12:55:27.564Z,7.67
2018-04-07T12:57:54.874Z,7.40
2018-04-07T13:00:22.451Z,11.23
2018-04-07T13:02:49.730Z,7.93
2018-04-07T13:05:17.052Z,8.43
2018-04-07T13:07:44.465Z,8.63
2018-04-07T13:10:11.742Z,8.00
2018-04-07T13:12:39.035Z,8.17
2018-04-07T13:15:06.404Z,8.23
2018-04-07T13:17:33.711Z,7.50
2018-04-07T13:20:01.039Z,8.53
2018-04-07T13:22:28.387Z,10.17
2018-04-07T13:24:55.710Z,8.67
2018-04-07T13:27:23.070Z,8.10
2018-04-07T13:29:50.426Z,7.07
2018-04-07T13:32:17.704Z,8.50
2018-04-07T13:34:45.120Z,9.90
2018-04-07T13:37:12.394Z,8.80
2018-04-07T13:39:39.924Z,8.90
2018-04-07T13:42:07.296Z,9.53
2018-04-07T13:44:34.641Z,9.27
2018-04-07T13:47:01.966Z,9.83
2018-04-07T13:49:29.436Z,8.13
2018-04-07T13:51:56.790Z,8.63
2018-04-07T13:54:24.126Z,9.30
2018-04-07T13:56:51.470Z,9.07
2018-04-07T13:59:18.794Z,9.20
2018-04-07T14:01:46.106Z,8.87
2018-04-07T14:04:13.376Z,9.90
2018-04-07T14:06:40.703Z,9.23
2018-04-07T14:09:07.976Z,9.60
2018-04-07T14:11:35.368Z,9.10
2018-04-07T14:14:02.728Z,9.20
2018-04-07T14:16:30.077Z,8.33
2018-04-07T14:18:57.442Z,8.23
2018-04-07T14:21:24.726Z,8.57
2018-04-07T14:23:52.035Z,8.60
2018-04-07T14:26:19.322Z,7.90
2018-04-07T14:28:46.615Z,8.17
2018-04-07T14:31:13.984Z,7.00
2018-04-07T14:33:41.366Z,7.30
2018-04-07T14:36:08.683Z,6.83
2018-04-07T14:38:35.995Z,9.27
2018-04-07T14:41:03.311Z,7.50
2018-04-07T14:43:30.651Z,7.90
2018-04-07T14:45:57.978Z,7.20
2018-04-07T14:48:25.290Z,7.43
2018-04-07T14:50:52.587Z,8.57
2018-04-07T14:53:19.897Z,8.07
2018-04-07T14:55:47.180Z,8.43
2018-04-07T14:58:14.523Z,8.20
2018-04-07T15:00:41.820Z,7.53
2018-04-07T15:03:09.153Z,7.90
2018-04-07T15:05:36.445Z,8.50
2018-04-07T15:08:03.735Z,7.50
2018-04-07T15:10:31.177Z,7.00
2018-04-07T15:12:58.548Z,8.50
2018-04-07T15:15:25.872Z,9.07
2018-04-07T15:17:53.162Z,8.33
2018-04-07T15:20:20.495Z,7.73
2018-04-07T15:22:47.775Z,7.97
2018-04-07T15:25:15.115Z,8.03
2018-04-07T15:27:42.418Z,7.50
2018-04-07T15:30:09.699Z,7.10
2018-04-07T15:32:37.001Z,7.97
2018-04-07T15:35:04.283Z,7.73
2018-04-07T15:37:31.595Z,7.20
2018-04-07T15:39:58.896Z,8.10
2018-04-07T15:42:26.208Z,8.33
2018-04-07T15:44:53.529Z,7.27
2018-04-07T15:47:20.778Z,7.50
2018-04-07T15:49:48.160Z,7.10
2018-04-07T15:52:15.515Z,6.53
2018-04-07T15:54:42.795Z,7.13
2018-04-07T15:57:10.078Z,7.27
2018-04-07T15:59:37.419Z,7.53
2018-04-07T16:02:04.814Z,7.30
2018-04-07T16:04:32.075Z,6.10
2018-04-07T16:06:59.391Z,8.20
2018-04-07T16:09:26.723Z,6.60
2018-04-07T16:11:54.035Z,6.53
2018-04-07T16:14:21.315Z,7.87
2018-04-07T16:16:48.614Z,5.83
2018-04-07T16:19:16.024Z,6.67
2018-04-07T16:21:43.444Z,5.53
2018-04-07T16:24:10.745Z,6.80
2018-04-07T16:26:38.058Z,6.17
2018-04-07T16:29:05.351Z,5.97
2018-04-07T16:31:32.723Z,5.93
2018-04-07T16:34:00.027Z,6.15
2018-04-07T16:36:27.509Z,5.60
2018-04-07T16:38:54.918Z,6.43
2018-04-07T16:41:22.439Z,6.15
2018-04-07T16:43:49.719Z,6.07
2018-04-07T16:46:17.012Z,5.57
2018-04-07T16:48:44.559Z,5.10
2018-04-07T16:51:12.126Z,6.30
2018-04-07T16:53:39.461Z,6.30
2018-04-07T16:56:06.733Z,6.33
2018-04-07T16:58:34.043Z,6.23
2018-04-07T17:01:01.345Z,5.17
2018-04-07T17:03:28.675Z,6.70
2018-04-07T17:05:56.057Z,5.53
2018-04-07T17:08:23.383Z,6.20
2018-04-07T17:10:50.684Z,4.13
2018-04-07T17:13:17.996Z,7.33
2018-04-07T17:15:45.348Z,5.70
2018-04-07T17:18:12.667Z,4.50
2018-04-07T17:20:39.947Z,5.27
2018-04-07T17:23:07.248Z,5.03
2018-04-07T17:25:34.551Z,5.30
2018-04-07T17:28:01.873Z,4.43
2018-04-07T17:30:29.221Z,4.33
2018-04-07T17:32:56.554Z,4.80
2018-04-07T17:35:23.845Z,4.80
2018-04-07T17:37:51.126Z,5.67
2018-04-07T17:40:18.399Z,5.20
2018-04-07T17:42:45.789Z,6.60
2018-04-07T17:45:13.042Z,5.97
2018-04-07T17:47:40.380Z,5.33
2018-04-07T17:50:07.660Z,6.20
2018-04-07T17:52:34.963Z,8.93
2018-04-07T17:55:02.254Z,8.30
2018-04-07T17:57:29.958Z,8.33
2018-04-07T17:59:57.271Z,7.50
2018-04-07T18:02:24.572Z,7.80
2018-04-07T18:04:51.909Z,8.03
2018-04-07T18:07:19.180Z,8.60
2018-04-07T18:09:46.500Z,8.17
2018-04-07T18:12:13.804Z,9.00
2018-04-07T18:14:41.962Z,9.23
2018-04-07T18:17:09.249Z,9.10
2018-04-07T18:19:36.539Z,8.00
2018-04-07T18:22:03.856Z,8.13
2018-04-07T18:24:31.285Z,8.93
2018-04-07T18:26:58.675Z,9.37
2018-04-07T18:29:25.956Z,9.30
2018-04-07T18:31:53.274Z,8.80
2018-04-07T18:34:20.566Z,9.40
2018-04-07T18:36:47.831Z,8.60
2018-04-07T18:39:15.119Z,8.70
2018-04-07T18:41:42.456Z,9.23
2018-04-07T18:44:09.690Z,9.80
2018-04-07T18:46:37.004Z,12.43
2018-04-07T18:49:04.316Z,10.83
2018-04-07T18:51:31.651Z,10.33
2018-04-07T18:53:58.941Z,11.20
2018-04-07T18:56:26.225Z,11.30
2018-04-07T18:58:53.545Z,10.97
2018-04-07T19:01:20.895Z,11.50
2018-04-07T19:03:48.184Z,10.87
2018-04-07T19:06:15.482Z,10.17
2018-04-07T19:08:42.777Z,10.23
2018-04-07T19:11:10.105Z,10.70
2018-04-07T19:13:37.396Z,9.70
2018-04-07T19:16:04.676Z,9.87
2018-04-07T19:18:31.996Z,10.60
2018-04-07T19:20:59.338Z,10.77
2018-04-07T19:23:26.663Z,10.63
2018-04-07T19:25:53.930Z,11.70
2018-04-07T19:28:21.236Z,11.77
2018-04-07T19:30:48.540Z,10.13
2018-04-07T19:33:15.860Z,9.33
2018-04-07T19:35:43.155Z,10.87
2018-04-07T19:38:10.463Z,12.80
2018-04-07T19:40:37.822Z,10.60
2018-04-07T19:43:05.123Z,10.50
2018-04-07T19:45:33.026Z,11.70
2018-04-07T19:48:00.496Z,12.50
2018-04-07T19:50:27.917Z,13.80
2018-04-07T19:52:55.214Z,11.73
2018-04-07T19:55:22.509Z,11.30
2018-04-07T19:57:49.795Z,12.07
2018-04-07T20:00:17.082Z,11.10
2018-04-07T20:02:44.374Z,12.17
2018-04-07T20:05:11.695Z,11.20
2018-04-07T20:07:39.012Z,11.07
2018-04-07T20:10:06.313Z,11.77
2018-04-07T20:12:33.638Z,9.27
2018-04-07T20:15:00.943Z,10.20
2018-04-07T20:17:28.282Z,11.70
2018-04-07T20:19:55.579Z,11.83
2018-04-07T20:22:22.873Z,11.80
2018-04-07T20:24:50.165Z,12.37
2018-04-07T20:27:17.475Z,12.60
2018-04-07T20:29:44.758Z,12.83
2018-04-07T20:32:12.102Z,11.90
2018-04-07T20:34:39.402Z,12.97
2018-04-07T20:37:06.794Z,12.57
2018-04-07T20:39:34.079Z,13.20
2018-04-07T20:42:08.067Z,15.10
2018-04-07T20:44:35.483Z,13.60
2018-04-07T20:47:02.844Z,13.07
2018-04-07T20:49:30.979Z,11.80
2018-04-07T20:51:58.314Z,12.70
2018-04-07T20:54:25.634Z,12.27
2018-04-07T20:56:53.204Z,13.97
2018-04-07T20:59:20.521Z,13.03
2018-04-07T21:01:47.824Z,11.40
2018-04-07T21:04:15.125Z,12.90
2018-04-07T21:06:42.431Z,12.10
2018-04-07T21:09:09.799Z,10.60
2018-04-07T21:11:37.100Z,10.93
2018-04-07T21:14:04.377Z,12.63
2018-04-07T21:16:31.695Z,11.50
2018-04-07T21:18:59.005Z,11.47
2018-04-07T21:21:26.307Z,12.30
2018-04-07T21:23:53.611Z,10.90
2018-04-07T21:26:20.903Z,10.27
2018-04-07T21:28:48.194Z,11.23
2018-04-07T21:31:15.515Z,9.83
2018-04-07T21:33:42.867Z,9.47
2018-04-07T21:36:10.155Z,10.60
2018-04-07T21:38:37.443Z,7.90
2018-04-07T21:41:04.800Z,8.83
2018-04-07T21:43:32.064Z,8.43
2018-04-07T21:45:59.371Z,7.90
2018-04-07T21:48:26.706Z,7.50
2018-04-07T21:50:53.994Z,6.77
2018-04-07T21:53:21.268Z,8.40
2018-04-07T21:55:48.550Z,7.77
2018-04-07T21:58:15.909Z,6.60
2018-04-07T22:00:43.190Z,7.23
2018-04-07T22:03:10.494Z,8.80
2018-04-07T22:05:37.758Z,7.87
2018-04-07T22:08:05.043Z,7.13
2018-04-07T22:10:32.387Z,7.83
2018-04-07T22:12:59.740Z,7.60
2018-04-07T22:15:27.033Z,8.60
2018-04-07T22:17:54.312Z,7.00
2018-04-07T22:20:21.620Z,7.90
2018-04-07T22:22:48.890Z,7.97
2018-04-07T22:25:16.203Z,7.70
2018-04-07T22:27:43.474Z,7.60
2018-04-07T22:30:10.761Z,7.33
2018-04-07T22:32:38.043Z,7.40
2018-04-07T22:35:05.306Z,7.90
2018-04-07T22:37:32.659Z,7.83
2018-04-07T22:39:59.952Z,8.13
2018-04-07T22:42:27.292Z,8.57
2018-04-07T22:44:54.800Z,8.30
2018-04-07T22:47:22.088Z,8.20
2018-04-07T22:49:50.258Z,7.80
2018-04-07T22:52:17.550Z,7.17
2018-04-07T22:54:44.886Z,7.03
2018-04-07T22:57:12.159Z,7.60
2018-04-07T22:59:39.829Z,8.17
2018-04-07T23:02:07.091Z,8.60
2018-04-07T23:04:34.415Z,7.70
2018-04-07T23:07:01.728Z,8.30
2018-04-07T23:09:29.048Z,7.23
2018-04-07T23:11:56.331Z,7.70
2018-04-07T23:14:23.622Z,7.63
2018-04-07T23:16:50.932Z,7.70
2018-04-07T23:19:18.219Z,7.80
2018-04-07T23:21:45.513Z,7.83
2018-04-07T23:24:12.803Z,9.10
2018-04-07T23:26:40.094Z,8.50
2018-04-07T23:29:07.366Z,8.73
2018-04-07T23:31:34.654Z,8.17
2018-04-07T23:34:01.948Z,7.90
2018-04-07T23:36:29.229Z,7.50
2018-04-07T23:38:56.534Z,8.13
2018-04-07T23:41:23.809Z,8.53
2018-04-07T23:43:51.104Z,9.50
2018-04-07T23:46:18.370Z,10.37
2018-04-07T23:48:45.678Z,8.83
2018-04-07T23:51:13.043Z,8.90
2018-04-07T23:53:41.062Z,9.30
2018-04-07T23:56:08.370Z,8.13
2018-04-07T23:58:35.631Z,8.60
